Glen Wilton, Virginia
Current Conditions -  °F | °C
As of 2:35 AM on Sunday 26 Oct 2014 (Local Time) from KHSP Reporting Station
Broken Clouds Broken Clouds  
Wind Chill: 55°   Ceiling: 2800
Heat Index: 55°   Visibility: 10mi
Dew Point: 44°   Wind: 18mph
Humidity: 66%   Direction: 310°NW
Pressure: 29.81"   Gusts: 28mph
Location:  37.75°N, 79.82°W
Report Text: KHSP 260635Z AUTO 31016G24KT 270V360 10SM BKN028 BKN034 13/07 A2981 RMK AO2 T01260065
Loading
Personal Weather Stations






























Interactive Weather Map
Tropical Storm Tracking
New forecast layout! Learn more

10-Day Weather Forecast

Advertisements
Track Severe Weather on mobile